Kezdőlap
METAR-TAF:

METAR-TAF

Repülőterek :

Wilbarger County Airport

Vernon, Texas, Amerikai Egyesült Államok

földrajzi szélesség: 34-13-32N, földrajzi hosszúság: 099-17-01W, magasság: 386 m

Jelenlegi meteorológiai megfigyelések

A jelentés 22 perccel ezelõtt készült, 14:55 UTC
Déli szél 19 kt széllökések: 25 kt
Hőmérséklet 28°C
Páratartalom 62%
Légköri nyomás 1009 hPa
Látótávolság: 16.1 km
Szakadozott felhőzet 3400 lábon
Borult 4100 lábon

METAR: KF05 181455Z AUTO 17019G25KT 10SM BKN034 OVC041 28/20 A2981 RMK AO2 T02820204

Idő: 10:17 (15:17 UTC)


TAF: hiányzik

Meteorológiai megfigyelések és előrejelzések több, mint 4000 repülőtéren (METAR és TAF jelentéseket).

A térképen piros és sárga pontok jelzik az elérhető meteorológiai állomásokat.

Mozgassa az egeret a pont fölött, hogy megjelenjen az állomás neve.

Azután kattintson az időjárási megfigyelések és előrejelzések megtekintéséhez.

A térkép megváltoztatása: kattintson a fekete keresztel jelölt zöld gombra ráközelítéshez, a vonallal jelölt zöld gombra távolításhoz, vagy a zöld nyilakra a szomszédos térképek eléréséhez.


METAR-TAF: